createdAt,value
2023-05-14T00:02:07.076Z,6.32
2023-05-14T00:05:00.508Z,6.53
2023-05-14T00:07:30.807Z,6.43
2023-05-14T00:09:59.420Z,6.10
2023-05-14T00:12:27.447Z,6.72
2023-05-14T00:14:58.046Z,6.13
2023-05-14T00:17:25.736Z,6.28
2023-05-14T00:19:53.521Z,6.47
2023-05-14T00:22:21.256Z,6.70
2023-05-14T00:24:48.903Z,6.10
2023-05-14T00:27:16.663Z,6.97
2023-05-14T00:29:45.732Z,6.68
2023-05-14T00:32:13.563Z,7.03
2023-05-14T00:34:41.346Z,6.05
2023-05-14T00:37:09.078Z,6.68
2023-05-14T00:39:37.079Z,6.10
2023-05-14T00:42:04.885Z,6.45
2023-05-14T00:44:32.746Z,6.10
2023-05-14T00:47:00.828Z,6.60
2023-05-14T00:49:28.809Z,6.20
2023-05-14T00:51:58.924Z,6.13
2023-05-14T00:54:28.117Z,6.00
2023-05-14T00:56:56.315Z,6.45
2023-05-14T00:59:23.908Z,6.85
2023-05-14T01:01:51.620Z,6.80
2023-05-14T01:04:19.890Z,6.50
2023-05-14T01:07:14.800Z,7.05
2023-05-14T01:10:17.442Z,7.10
2023-05-14T01:12:57.125Z,7.32
2023-05-14T01:15:30.976Z,7.03
2023-05-14T01:18:09.466Z,7.32
2023-05-14T01:20:38.167Z,7.32
2023-05-14T01:23:05.946Z,6.55
2023-05-14T01:25:33.766Z,6.75
2023-05-14T01:28:17.360Z,6.65
2023-05-14T01:31:12.098Z,6.75
2023-05-14T01:33:42.256Z,5.90
2023-05-14T01:36:10.777Z,6.75
2023-05-14T01:38:39.636Z,6.68
2023-05-14T01:41:07.550Z,6.22
2023-05-14T01:43:37.300Z,6.10
2023-05-14T01:46:05.280Z,6.57
2023-05-14T01:48:33.298Z,6.25
2023-05-14T01:51:02.239Z,6.70
2023-05-14T01:53:29.967Z,6.82
2023-05-14T01:55:57.624Z,6.40
2023-05-14T01:58:25.458Z,6.60
2023-05-14T02:00:53.149Z,7.03
2023-05-14T02:03:21.583Z,6.95
2023-05-14T02:05:49.290Z,7.13
2023-05-14T02:08:17.623Z,6.65
2023-05-14T02:10:45.422Z,6.95
2023-05-14T02:13:13.081Z,7.15
2023-05-14T02:15:40.882Z,7.03
2023-05-14T02:18:08.567Z,6.53
2023-05-14T02:20:36.274Z,6.55
2023-05-14T02:23:04.075Z,7.15
2023-05-14T02:25:31.664Z,6.93
2023-05-14T02:27:59.218Z,7.82
2023-05-14T02:30:27.003Z,8.05
2023-05-14T02:32:55.003Z,7.78
2023-05-14T02:35:22.978Z,8.77
2023-05-14T02:37:50.687Z,7.93
2023-05-14T02:40:18.387Z,7.60
2023-05-14T02:42:46.186Z,7.93
2023-05-14T02:45:13.907Z,7.65
2023-05-14T02:47:41.878Z,7.38
2023-05-14T02:50:11.167Z,8.38
2023-05-14T02:52:39.002Z,8.13
2023-05-14T02:55:07.102Z,7.25
2023-05-14T02:57:34.864Z,7.72
2023-05-14T03:00:02.555Z,7.78
2023-05-14T03:02:32.632Z,8.18
2023-05-14T03:05:00.746Z,7.85
2023-05-14T03:07:28.412Z,8.38
2023-05-14T03:09:56.397Z,9.57
2023-05-14T03:12:23.990Z,9.18
2023-05-14T03:14:51.664Z,8.10
2023-05-14T03:17:19.420Z,9.68
2023-05-14T03:19:47.102Z,9.30
2023-05-14T03:22:14.769Z,9.60
2023-05-14T03:24:42.561Z,9.73
2023-05-14T03:27:10.214Z,9.50
2023-05-14T03:29:37.896Z,9.68
2023-05-14T03:32:06.361Z,8.98
2023-05-14T03:34:34.153Z,9.93
2023-05-14T03:37:01.894Z,9.38
2023-05-14T03:39:29.527Z,10.32
2023-05-14T03:41:58.831Z,10.55
2023-05-14T03:44:26.775Z,9.50
2023-05-14T03:46:54.352Z,10.15
2023-05-14T03:49:22.415Z,9.30
2023-05-14T03:51:49.984Z,9.63
2023-05-14T03:54:17.853Z,10.77
2023-05-14T03:56:45.923Z,9.90
2023-05-14T03:59:14.225Z,10.00
2023-05-14T04:01:41.966Z,10.63
2023-05-14T04:04:09.708Z,10.43
2023-05-14T04:06:37.485Z,10.65
2023-05-14T04:09:05.286Z,10.45
2023-05-14T04:11:32.925Z,10.40
2023-05-14T04:14:00.900Z,10.65
2023-05-14T04:16:28.729Z,10.77
2023-05-14T04:18:56.599Z,9.77
2023-05-14T04:21:24.304Z,10.25
2023-05-14T04:23:51.924Z,10.18
2023-05-14T04:26:19.572Z,10.00
2023-05-14T04:28:47.509Z,9.82
2023-05-14T04:31:15.807Z,11.52
2023-05-14T04:33:43.560Z,11.60
2023-05-14T04:36:11.207Z,11.80
2023-05-14T04:38:38.930Z,12.65
2023-05-14T04:41:07.075Z,12.18
2023-05-14T04:43:34.789Z,12.35
2023-05-14T04:46:02.591Z,12.45
2023-05-14T04:48:30.437Z,11.13
2023-05-14T04:50:58.111Z,11.68
2023-05-14T04:53:25.768Z,11.35
2023-05-14T04:55:54.064Z,11.57
2023-05-14T04:58:23.535Z,11.80
2023-05-14T05:00:51.236Z,11.40
2023-05-14T05:03:18.976Z,10.98
2023-05-14T05:05:46.635Z,11.35
2023-05-14T05:08:14.265Z,10.32
2023-05-14T05:10:42.085Z,11.50
2023-05-14T05:13:09.823Z,10.85
2023-05-14T05:15:37.523Z,12.10
2023-05-14T05:18:05.355Z,12.05
2023-05-14T05:20:33.067Z,12.00
2023-05-14T05:23:00.780Z,10.85
2023-05-14T05:25:28.376Z,11.00
2023-05-14T05:27:55.979Z,11.63
2023-05-14T05:30:23.855Z,11.65
2023-05-14T05:32:51.789Z,10.90
2023-05-14T05:35:19.543Z,11.23
2023-05-14T05:37:47.143Z,11.13
2023-05-14T05:40:15.698Z,10.85
2023-05-14T05:42:43.588Z,10.10
2023-05-14T05:45:11.378Z,9.27
2023-05-14T05:47:39.034Z,8.90
2023-05-14T05:50:07.686Z,8.45
2023-05-14T05:52:35.490Z,8.95
2023-05-14T05:55:03.635Z,8.68
2023-05-14T05:57:31.333Z,8.60
2023-05-14T05:59:59.108Z,9.15
2023-05-14T06:02:26.851Z,9.35
2023-05-14T06:04:54.812Z,9.63
2023-05-14T06:07:22.461Z,8.80
2023-05-14T06:09:50.229Z,9.27
2023-05-14T06:12:17.841Z,8.65
2023-05-14T06:14:45.526Z,8.55
2023-05-14T06:17:13.101Z,8.45
2023-05-14T06:19:40.793Z,9.00
2023-05-14T06:22:08.348Z,8.43
2023-05-14T06:24:35.913Z,8.20
2023-05-14T06:27:03.717Z,8.23
2023-05-14T06:29:31.361Z,8.77
2023-05-14T06:32:03.714Z,8.02
2023-05-14T06:34:31.798Z,8.32
2023-05-14T06:37:00.261Z,7.60
2023-05-14T06:39:28.032Z,9.15
2023-05-14T06:41:55.728Z,8.10
2023-05-14T06:44:24.448Z,7.72
2023-05-14T06:46:52.072Z,7.88
2023-05-14T06:49:19.821Z,7.53
2023-05-14T06:51:47.393Z,7.93
2023-05-14T06:54:15.153Z,7.80
2023-05-14T06:56:42.821Z,7.50
2023-05-14T06:59:10.427Z,7.78
2023-05-14T07:01:38.082Z,7.20
2023-05-14T07:04:07.037Z,7.22
2023-05-14T07:06:35.110Z,7.13
2023-05-14T07:09:03.156Z,6.78
2023-05-14T07:11:30.963Z,6.55
2023-05-14T07:13:58.867Z,5.70
2023-05-14T07:16:26.842Z,6.13
2023-05-14T07:18:54.544Z,5.55
2023-05-14T07:21:22.112Z,5.22
2023-05-14T07:23:49.820Z,5.38
2023-05-14T07:26:17.606Z,5.82
2023-05-14T07:28:45.416Z,5.63
2023-05-14T07:31:13.125Z,4.65
2023-05-14T07:33:40.811Z,4.00
2023-05-14T07:36:08.935Z,3.67
2023-05-14T07:38:36.848Z,4.63
2023-05-14T07:41:04.920Z,4.05
2023-05-14T07:43:32.841Z,4.60
2023-05-14T07:46:00.550Z,3.55
2023-05-14T07:48:28.407Z,4.15
2023-05-14T07:50:56.150Z,4.53
2023-05-14T07:53:24.904Z,3.90
2023-05-14T07:55:52.736Z,3.63
2023-05-14T07:58:20.527Z,3.90
2023-05-14T08:00:48.126Z,3.20
2023-05-14T08:03:16.025Z,3.25
2023-05-14T08:05:43.727Z,3.55
2023-05-14T08:08:12.495Z,3.40
2023-05-14T08:10:40.289Z,3.38
2023-05-14T08:13:08.800Z,3.10
2023-05-14T08:15:37.017Z,4.25
2023-05-14T08:18:04.818Z,3.13
2023-05-14T08:20:32.742Z,3.97
2023-05-14T08:23:00.677Z,2.80
2023-05-14T08:25:28.367Z,2.90
2023-05-14T08:27:56.122Z,2.85
2023-05-14T08:30:24.182Z,2.60
2023-05-14T08:32:52.834Z,2.63
2023-05-14T08:35:20.721Z,3.10
2023-05-14T08:37:49.639Z,2.67
2023-05-14T08:40:17.552Z,2.30
2023-05-14T08:42:45.660Z,2.70
2023-05-14T08:45:20.113Z,2.72
2023-05-14T08:47:50.537Z,2.80
2023-05-14T08:50:23.522Z,3.17
2023-05-14T08:52:52.815Z,2.67
2023-05-14T08:55:21.116Z,2.88
2023-05-14T08:57:49.099Z,3.53
2023-05-14T09:00:16.837Z,3.10
2023-05-14T09:02:46.605Z,2.78
2023-05-14T09:05:15.408Z,3.00
2023-05-14T09:07:43.226Z,2.85
2023-05-14T09:10:12.667Z,2.85
2023-05-14T09:12:40.492Z,2.97
2023-05-14T09:15:08.800Z,3.13
2023-05-14T09:17:36.593Z,3.35
2023-05-14T09:20:05.104Z,3.05
2023-05-14T09:22:32.913Z,3.33
2023-05-14T09:25:12.246Z,3.00
2023-05-14T09:27:40.274Z,2.92
2023-05-14T09:30:13.284Z,2.80
2023-05-14T09:32:47.082Z,3.13
2023-05-14T09:35:23.863Z,2.70
2023-05-14T09:37:54.288Z,2.92
2023-05-14T09:40:24.654Z,3.42
2023-05-14T09:42:52.967Z,2.70
2023-05-14T09:45:20.856Z,2.70
2023-05-14T09:47:48.800Z,2.30
2023-05-14T09:50:16.650Z,2.60
2023-05-14T09:52:44.345Z,2.63
2023-05-14T09:55:11.973Z,2.60
2023-05-14T09:57:39.856Z,3.30
2023-05-14T10:00:09.217Z,2.85
2023-05-14T10:02:38.905Z,2.67
2023-05-14T10:05:07.818Z,2.35
2023-05-14T10:07:48.710Z,2.88
2023-05-14T10:10:20.208Z,2.50
2023-05-14T10:12:57.567Z,2.40
2023-05-14T10:15:37.826Z,2.63
2023-05-14T10:18:12.192Z,2.55
2023-05-14T10:20:41.572Z,2.25
2023-05-14T10:23:09.464Z,2.83
2023-05-14T10:25:38.021Z,2.38
2023-05-14T10:28:06.161Z,2.85
2023-05-14T10:30:33.748Z,2.88
2023-05-14T10:33:13.548Z,3.33
2023-05-14T10:36:05.921Z,2.53
2023-05-14T10:38:38.492Z,2.70
2023-05-14T10:41:21.515Z,3.30
2023-05-14T10:43:50.422Z,2.55
2023-05-14T10:46:18.302Z,3.08
2023-05-14T10:48:46.434Z,2.53
2023-05-14T10:51:17.399Z,2.60
2023-05-14T10:53:45.165Z,3.20
2023-05-14T10:56:14.378Z,3.10
2023-05-14T10:58:44.505Z,2.67
2023-05-14T11:01:13.675Z,2.72
2023-05-14T11:03:45.131Z,2.50
2023-05-14T11:06:15.862Z,2.72
2023-05-14T11:08:44.484Z,2.83
2023-05-14T11:11:12.390Z,3.08
2023-05-14T11:13:41.422Z,2.90
2023-05-14T11:16:21.788Z,3.08
2023-05-14T11:19:03.513Z,2.70
2023-05-14T11:21:32.619Z,2.78
2023-05-14T11:24:03.877Z,3.38
2023-05-14T11:26:32.017Z,2.97
2023-05-14T11:29:00.117Z,3.17
2023-05-14T11:31:28.030Z,2.88
2023-05-14T11:33:55.964Z,3.20
2023-05-14T11:36:23.610Z,3.13
2023-05-14T11:38:52.535Z,3.17
2023-05-14T11:41:23.195Z,4.18
2023-05-14T11:43:51.313Z,3.17
2023-05-14T11:46:19.702Z,2.78
2023-05-14T11:48:48.094Z,3.15
2023-05-14T11:51:15.998Z,3.33
2023-05-14T11:53:46.016Z,3.50
2023-05-14T11:56:13.909Z,3.80
2023-05-14T11:58:41.628Z,3.40
2023-05-14T12:01:13.843Z,3.40
2023-05-14T12:03:42.300Z,3.30
2023-05-14T12:06:10.295Z,3.13
2023-05-14T12:08:38.028Z,3.92
2023-05-14T12:11:05.709Z,3.78
2023-05-14T12:13:33.672Z,3.90
2023-05-14T12:16:02.658Z,3.47
2023-05-14T12:18:32.296Z,3.50
2023-05-14T12:21:05.187Z,2.70
2023-05-14T12:23:33.006Z,3.65
2023-05-14T12:26:06.938Z,3.25
2023-05-14T12:28:38.203Z,3.13
2023-05-14T12:31:06.402Z,2.88
2023-05-14T12:33:34.116Z,3.75
2023-05-14T12:36:10.074Z,2.92
2023-05-14T12:38:48.554Z,3.50
2023-05-14T12:41:17.713Z,3.40
2023-05-14T12:43:48.836Z,3.45
2023-05-14T12:46:17.010Z,3.45
2023-05-14T12:48:45.215Z,2.80
2023-05-14T12:51:16.940Z,2.92
2023-05-14T12:53:44.759Z,3.20
2023-05-14T12:56:13.737Z,2.83
2023-05-14T12:58:41.519Z,3.35
2023-05-14T13:01:09.541Z,3.10
2023-05-14T13:03:37.278Z,3.33
2023-05-14T13:06:05.174Z,3.13
2023-05-14T13:08:32.888Z,2.70
2023-05-14T13:11:00.482Z,3.40
2023-05-14T13:13:28.352Z,3.17
2023-05-14T13:15:56.179Z,2.90
2023-05-14T13:18:23.868Z,4.72
2023-05-14T13:20:51.864Z,3.80
2023-05-14T13:23:19.636Z,4.53
2023-05-14T13:25:49.749Z,3.83
2023-05-14T13:28:17.700Z,4.85
2023-05-14T13:31:06.917Z,3.22
2023-05-14T13:33:37.301Z,3.30
2023-05-14T13:36:05.812Z,3.05
2023-05-14T13:38:33.802Z,3.90
2023-05-14T13:41:04.176Z,2.65
2023-05-14T13:43:35.332Z,2.40
2023-05-14T13:46:05.266Z,2.63
2023-05-14T13:48:33.654Z,3.63
2023-05-14T13:51:01.343Z,3.15
2023-05-14T13:53:29.234Z,2.67
2023-05-14T13:55:58.285Z,3.05
2023-05-14T13:58:26.341Z,3.50
2023-05-14T14:00:54.548Z,2.90
2023-05-14T14:03:22.410Z,2.58
2023-05-14T14:05:50.201Z,3.08
2023-05-14T14:08:24.082Z,3.15
2023-05-14T14:10:54.574Z,2.90
2023-05-14T14:13:22.929Z,4.07
2023-05-14T14:15:51.210Z,3.10
2023-05-14T14:18:19.163Z,3.30
2023-05-14T14:20:47.302Z,2.30
2023-05-14T14:23:15.135Z,2.70
2023-05-14T14:25:42.771Z,3.00
2023-05-14T14:28:10.558Z,2.47
2023-05-14T14:30:38.125Z,2.90
2023-05-14T14:33:05.968Z,2.92
2023-05-14T14:35:35.269Z,2.75
2023-05-14T14:38:03.077Z,3.03
2023-05-14T14:40:34.051Z,2.63
2023-05-14T14:43:02.232Z,3.28
2023-05-14T14:45:29.995Z,2.30
2023-05-14T14:48:41.300Z,2.90
2023-05-14T14:51:09.786Z,3.00
2023-05-14T14:53:37.512Z,2.75
2023-05-14T14:56:05.963Z,3.30
2023-05-14T14:58:33.719Z,3.60
2023-05-14T15:01:01.607Z,2.92
2023-05-14T15:03:29.496Z,2.90
2023-05-14T15:05:57.335Z,2.75
2023-05-14T15:08:27.713Z,2.72
2023-05-14T15:10:57.162Z,2.50
2023-05-14T15:13:25.701Z,2.90
2023-05-14T15:15:53.438Z,3.08
2023-05-14T15:18:21.300Z,3.17
2023-05-14T15:20:49.293Z,3.00
2023-05-14T15:23:17.223Z,2.83
2023-05-14T15:25:45.134Z,3.08
2023-05-14T15:28:12.769Z,3.28
2023-05-14T15:30:40.469Z,2.97
2023-05-14T15:33:08.828Z,2.55
2023-05-14T15:35:36.857Z,2.80
2023-05-14T15:38:04.618Z,3.05
2023-05-14T15:40:34.933Z,2.50
2023-05-14T15:43:03.056Z,3.03
2023-05-14T15:45:30.712Z,2.80
2023-05-14T15:47:58.608Z,2.90
2023-05-14T15:50:27.375Z,3.00
2023-05-14T15:52:55.381Z,2.90
2023-05-14T15:55:23.149Z,2.90
2023-05-14T15:57:50.861Z,3.03
2023-05-14T16:00:19.604Z,2.75
2023-05-14T16:02:47.634Z,3.28
2023-05-14T16:05:15.454Z,2.67
2023-05-14T16:07:43.152Z,3.45
2023-05-14T16:10:11.394Z,2.85
2023-05-14T16:12:39.298Z,3.05
2023-05-14T16:15:08.182Z,3.00
2023-05-14T16:17:36.064Z,2.88
2023-05-14T16:20:07.021Z,3.08
2023-05-14T16:22:36.109Z,3.00
2023-05-14T16:25:04.924Z,2.70
2023-05-14T16:27:33.415Z,3.40
2023-05-14T16:30:01.104Z,2.88
2023-05-14T16:32:29.084Z,2.65
2023-05-14T16:34:57.088Z,2.78
2023-05-14T16:37:24.854Z,2.80
2023-05-14T16:39:52.626Z,2.33
2023-05-14T16:42:20.243Z,2.42
2023-05-14T16:44:47.868Z,3.05
2023-05-14T16:47:15.585Z,2.40
2023-05-14T16:49:43.364Z,2.88
2023-05-14T16:52:11.215Z,3.15
2023-05-14T16:54:39.230Z,3.05
2023-05-14T16:57:07.003Z,2.50
2023-05-14T16:59:34.837Z,2.55
2023-05-14T17:02:03.072Z,2.78
2023-05-14T17:04:34.750Z,2.90
2023-05-14T17:07:03.926Z,3.15
2023-05-14T17:09:31.709Z,3.00
2023-05-14T17:11:59.455Z,3.38
2023-05-14T17:14:27.376Z,2.95
2023-05-14T17:16:55.156Z,3.83
2023-05-14T17:19:22.812Z,3.00
2023-05-14T17:21:50.854Z,3.22
2023-05-14T17:24:18.622Z,3.00
2023-05-14T17:26:46.333Z,3.17
2023-05-14T17:29:17.139Z,2.90
2023-05-14T17:31:44.876Z,3.13
2023-05-14T17:34:12.533Z,2.95
2023-05-14T17:36:40.247Z,2.92
2023-05-14T17:39:07.940Z,3.10
2023-05-14T17:41:35.683Z,3.03
2023-05-14T17:44:03.323Z,3.13
2023-05-14T17:46:31.165Z,2.53
2023-05-14T17:48:58.916Z,2.53
2023-05-14T17:51:26.648Z,2.80
2023-05-14T17:53:54.331Z,2.85
2023-05-14T17:56:23.219Z,2.92
2023-05-14T17:58:51.025Z,3.10
2023-05-14T18:01:19.287Z,2.90
2023-05-14T18:03:49.562Z,3.17
2023-05-14T18:06:17.616Z,3.90
2023-05-14T18:08:45.377Z,3.33
2023-05-14T18:11:13.215Z,3.22
2023-05-14T18:13:41.094Z,3.72
2023-05-14T18:16:08.835Z,3.67
2023-05-14T18:18:36.618Z,3.40
2023-05-14T18:21:05.382Z,3.90
2023-05-14T18:23:33.602Z,3.47
2023-05-14T18:26:01.554Z,3.08
2023-05-14T18:28:29.381Z,3.30
2023-05-14T18:30:57.142Z,2.92
2023-05-14T18:33:25.806Z,2.88
2023-05-14T18:35:55.705Z,3.28
2023-05-14T18:38:23.742Z,3.70
2023-05-14T18:40:51.680Z,3.20
2023-05-14T18:43:19.786Z,2.80
2023-05-14T18:45:48.273Z,3.45
2023-05-14T18:48:16.495Z,3.28
2023-05-14T18:50:44.381Z,3.50
2023-05-14T18:53:12.179Z,3.47
2023-05-14T18:55:43.167Z,3.75
2023-05-14T18:58:12.061Z,3.13
2023-05-14T19:00:40.848Z,3.85
2023-05-14T19:03:11.334Z,3.63
2023-05-14T19:05:39.315Z,4.75
2023-05-14T19:08:07.652Z,3.88
2023-05-14T19:10:35.439Z,3.75
2023-05-14T19:13:03.547Z,4.13
2023-05-14T19:15:32.313Z,3.65
2023-05-14T19:18:00.887Z,9.23
2023-05-14T19:20:28.705Z,8.90
2023-05-14T19:22:56.335Z,9.75
2023-05-14T19:25:24.608Z,4.95
2023-05-14T19:27:53.620Z,5.57
2023-05-14T19:30:21.501Z,5.07
2023-05-14T19:32:49.647Z,4.57
2023-05-14T19:35:17.532Z,4.75
2023-05-14T19:37:46.305Z,4.18
2023-05-14T19:40:13.958Z,4.97
2023-05-14T19:42:41.711Z,5.10
2023-05-14T19:45:10.197Z,4.20
2023-05-14T19:47:37.922Z,3.85
2023-05-14T19:50:08.384Z,3.60
2023-05-14T19:52:36.188Z,3.75
2023-05-14T19:55:04.251Z,3.55
2023-05-14T19:57:31.937Z,3.50
2023-05-14T19:59:59.748Z,3.90
2023-05-14T20:02:27.505Z,3.60
2023-05-14T20:04:55.413Z,3.78
2023-05-14T20:07:24.944Z,3.53
2023-05-14T20:09:52.633Z,3.40
2023-05-14T20:12:20.360Z,3.72
2023-05-14T20:14:48.010Z,3.35
2023-05-14T20:17:15.883Z,3.88
2023-05-14T20:19:43.776Z,3.65
2023-05-14T20:22:11.403Z,4.00
2023-05-14T20:24:41.022Z,3.88
2023-05-14T20:27:08.882Z,4.05
2023-05-14T20:29:36.463Z,4.90
2023-05-14T20:32:04.500Z,5.00
2023-05-14T20:34:32.116Z,5.07
2023-05-14T20:36:59.853Z,4.20
2023-05-14T20:39:27.481Z,4.53
2023-05-14T20:41:55.134Z,4.38
2023-05-14T20:44:22.807Z,3.70
2023-05-14T20:46:50.704Z,4.07
2023-05-14T20:49:18.420Z,4.45
2023-05-14T20:51:46.135Z,4.45
2023-05-14T20:54:13.777Z,4.85
2023-05-14T20:56:41.468Z,4.68
2023-05-14T20:59:09.176Z,5.03
2023-05-14T21:01:37.068Z,5.00
2023-05-14T21:04:04.983Z,4.68
2023-05-14T21:06:32.764Z,5.45
2023-05-14T21:09:02.711Z,5.15
2023-05-14T21:11:30.396Z,5.78
2023-05-14T21:13:58.086Z,5.43
2023-05-14T21:16:25.891Z,5.22
2023-05-14T21:18:53.669Z,5.30
2023-05-14T21:21:23.986Z,5.03
2023-05-14T21:23:51.959Z,4.30
2023-05-14T21:26:22.151Z,4.70
2023-05-14T21:28:49.821Z,4.40
2023-05-14T21:31:17.562Z,3.90
2023-05-14T21:33:45.282Z,4.30
2023-05-14T21:36:13.013Z,4.15
2023-05-14T21:38:41.573Z,4.18
2023-05-14T21:41:12.128Z,4.00
2023-05-14T21:43:40.754Z,4.18
2023-05-14T21:46:08.642Z,4.20
2023-05-14T21:48:36.412Z,4.25
2023-05-14T21:51:04.265Z,4.35
2023-05-14T21:53:31.928Z,3.95
2023-05-14T21:55:59.511Z,3.88
2023-05-14T21:58:27.685Z,4.30
2023-05-14T22:00:55.280Z,4.55
2023-05-14T22:03:23.268Z,4.18
2023-05-14T22:05:51.581Z,4.18
2023-05-14T22:08:19.343Z,4.90
2023-05-14T22:10:47.539Z,3.88
2023-05-14T22:13:15.322Z,3.92
2023-05-14T22:15:42.975Z,4.45
2023-05-14T22:18:12.625Z,4.40
2023-05-14T22:20:40.525Z,4.43
2023-05-14T22:23:08.204Z,4.53
2023-05-14T22:25:35.829Z,4.35
2023-05-14T22:28:03.573Z,4.03
2023-05-14T22:30:31.239Z,3.90
2023-05-14T22:32:58.959Z,4.10
2023-05-14T22:35:27.004Z,4.32
2023-05-14T22:37:54.776Z,5.32
2023-05-14T22:40:22.404Z,4.20
2023-05-14T22:42:50.021Z,3.90
2023-05-14T22:45:17.877Z,4.32
2023-05-14T22:47:45.539Z,4.00
2023-05-14T22:50:13.312Z,4.20
2023-05-14T22:52:41.403Z,4.50
2023-05-14T22:55:09.386Z,4.55
2023-05-14T22:57:37.186Z,4.88
2023-05-14T23:00:06.972Z,4.68
2023-05-14T23:02:34.713Z,4.60
2023-05-14T23:05:02.566Z,4.60
2023-05-14T23:07:30.246Z,4.85
2023-05-14T23:09:57.924Z,5.03
2023-05-14T23:12:25.998Z,4.57
2023-05-14T23:14:53.589Z,5.28
2023-05-14T23:17:21.313Z,4.65
2023-05-14T23:19:49.026Z,4.47
2023-05-14T23:22:16.782Z,3.92
2023-05-14T23:24:45.018Z,4.95
2023-05-14T23:27:13.564Z,4.57
2023-05-14T23:29:41.235Z,4.65
2023-05-14T23:32:11.768Z,4.75
2023-05-14T23:34:39.617Z,5.20
2023-05-14T23:37:07.775Z,4.72
2023-05-14T23:39:35.391Z,4.60
2023-05-14T23:42:03.133Z,4.57
2023-05-14T23:44:30.812Z,4.25
2023-05-14T23:46:58.572Z,4.22
2023-05-14T23:49:26.363Z,4.55
2023-05-14T23:51:54.770Z,5.15
2023-05-14T23:54:22.430Z,5.13
2023-05-14T23:56:50.114Z,5.38
2023-05-14T23:59:18.407Z,6.07
